Time;durP1;ratioP1;P1;durP2;ratioP2;P2;SDS_P1;SDS_P2;PMS_P1;PMS_P2;Temp;Humidity;BMP_temperature;BMP_pressure;BME280_temperature;BME280_humidity;BME280_pressure;Samples;Min_cycle;Max_cycle;Signal;HPM_P1;HPM_P2
2022/11/25 00:01:06;;;;;;;13.53;4.50;;;;;;;;;;5058418;28;20205;-86
2022/11/25 00:03:35;;;;;;;14.17;6.60;;;;;;;;;;5057836;28;20222;-87
2022/11/25 00:06:13;;;;;;;13.77;5.70;;;;;;;;;;5058539;28;20201;-86
2022/11/25 00:08:42;;;;;;;18.97;5.60;;;;;;;;;;5057682;28;20307;-86
2022/11/25 00:11:11;;;;;;;21.33;6.53;;;;;;;;;;5058050;28;20201;-86
2022/11/25 00:13:40;;;;;;;13.87;8.90;;;;;;;;;;5063662;28;20296;-86
2022/11/25 00:16:11;;;;;;;21.33;5.87;;;;;;;;;;5075837;28;20233;-85
2022/11/25 00:18:40;;;;;;;18.43;6.20;;;;;;;;;;5057842;28;20297;-86
2022/11/25 00:21:09;;;;;;;17.77;7.33;;;;;;;;;;5075138;28;20272;-87
2022/11/25 00:23:38;;;;;;;17.67;6.70;;;;;;;;;;5075972;28;20583;-86
2022/11/25 00:26:07;;;;;;;17.63;6.97;;;;;;;;;;5057615;28;20206;-86
2022/11/25 00:28:35;;;;;;;12.27;5.13;;;;;;;;;;5057921;28;20207;-86
2022/11/25 00:31:08;;;;;;;13.93;5.23;;;;;;;;;;5057575;28;20198;-86
2022/11/25 00:33:38;;;;;;;23.10;8.33;;;;;;;;;;5057811;28;20217;-86
2022/11/25 00:36:07;;;;;;;21.17;7.40;;;;;;;;;;5057481;28;20207;-86
2022/11/25 00:38:36;;;;;;;20.27;7.30;;;;;;;;;;5075114;28;20202;-86
2022/11/25 00:46:36;;;;;;;10.60;5.70;;;;;;;;;;5057809;28;20263;-86
2022/11/25 00:49:06;;;;;;;14.90;7.80;;;;;;;;;;5057353;28;20214;-86
2022/11/25 00:51:34;;;;;;;16.53;6.80;;;;;;;;;;5057814;28;20206;-86
2022/11/25 00:54:02;;;;;;;12.90;6.87;;;;;;;;;;5057020;28;20286;-86
2022/11/25 00:56:31;;;;;;;22.47;8.37;;;;;;;;;;5057103;28;20223;-86
2022/11/25 00:58:59;;;;;;;16.57;7.53;;;;;;;;;;5044445;28;20194;-86
2022/11/25 01:01:28;;;;;;;23.97;10.23;;;;;;;;;;5057103;28;20191;-86
2022/11/25 01:03:56;;;;;;;15.70;7.43;;;;;;;;;;5057383;28;20222;-86
2022/11/25 01:06:26;;;;;;;10.73;6.27;;;;;;;;;;5074652;28;20198;-86
2022/11/25 01:08:54;;;;;;;8.73;4.30;;;;;;;;;;5057136;28;20304;-86
2022/11/25 01:11:23;;;;;;;9.00;4.67;;;;;;;;;;5074796;28;20209;-86
2022/11/25 01:13:53;;;;;;;6.30;3.47;;;;;;;;;;5057329;28;20261;-86
2022/11/25 01:16:28;;;;;;;6.33;3.43;;;;;;;;;;5057144;28;20263;-86
2022/11/25 01:18:58;;;;;;;4.43;2.80;;;;;;;;;;5057078;28;20190;-86
2022/11/25 01:21:29;;;;;;;6.30;3.17;;;;;;;;;;5074494;28;20204;-86
2022/11/25 01:23:59;;;;;;;4.77;1.70;;;;;;;;;;5074529;28;20210;-86
2022/11/25 01:26:28;;;;;;;4.23;2.23;;;;;;;;;;5056441;28;20214;-86
2022/11/25 01:28:57;;;;;;;3.77;1.90;;;;;;;;;;5056511;28;20212;-86
2022/11/25 01:31:26;;;;;;;3.03;1.70;;;;;;;;;;5056266;28;20241;-86
2022/11/25 01:33:56;;;;;;;4.30;2.40;;;;;;;;;;5056486;28;20201;-86
2022/11/25 01:36:25;;;;;;;5.33;1.80;;;;;;;;;;5043785;28;20202;-86
2022/11/25 01:38:56;;;;;;;1.40;1.27;;;;;;;;;;5073674;28;20287;-86
2022/11/25 01:41:25;;;;;;;4.83;2.07;;;;;;;;;;5056604;28;20225;-86
2022/11/25 01:44:11;;;;;;;2.90;1.80;;;;;;;;;;5055901;28;20206;-86
2022/11/25 01:47:01;;;;;;;4.83;1.87;;;;;;;;;;5056610;28;20220;-86
2022/11/25 01:49:32;;;;;;;1.77;1.67;;;;;;;;;;5053937;28;20305;-86
2022/11/25 01:52:03;;;;;;;2.60;1.50;;;;;;;;;;5055717;28;20205;-86
2022/11/25 01:54:36;;;;;;;1.30;1.20;;;;;;;;;;5056294;28;20201;-86
2022/11/25 01:57:07;;;;;;;2.10;1.23;;;;;;;;;;5055457;28;20195;-86
2022/11/25 01:59:38;;;;;;;3.77;2.27;;;;;;;;;;5056211;28;20197;-86
2022/11/25 02:02:06;;;;;;;4.43;1.93;;;;;;;;;;5055891;28;20205;-86
2022/11/25 02:04:36;;;;;;;2.33;2.13;;;;;;;;;;5055677;28;20217;-86
2022/11/25 02:07:08;;;;;;;3.90;3.20;;;;;;;;;;5056282;28;20206;-86
2022/11/25 02:09:40;;;;;;;4.63;3.60;;;;;;;;;;5055412;28;20230;-86
2022/11/25 02:12:09;;;;;;;8.20;5.10;;;;;;;;;;5055990;28;20203;-86
2022/11/25 02:14:37;;;;;;;15.43;8.27;;;;;;;;;;5055357;28;20212;-86
2022/11/25 02:17:06;;;;;;;16.63;10.57;;;;;;;;;;5073690;28;20203;-86
2022/11/25 02:19:41;;;;;;;12.57;8.93;;;;;;;;;;5055636;28;20217;-86
2022/11/25 02:22:11;;;;;;;12.03;8.07;;;;;;;;;;5055908;28;20193;-86
2022/11/25 02:24:43;;;;;;;15.23;9.57;;;;;;;;;;5073596;28;20201;-86
2022/11/25 02:27:13;;;;;;;12.90;8.33;;;;;;;;;;5055562;28;20202;-86
2022/11/25 02:29:43;;;;;;;20.40;11.30;;;;;;;;;;5055477;28;20219;-86
2022/11/25 02:32:11;;;;;;;17.50;11.37;;;;;;;;;;5073557;28;20206;-86
2022/11/25 02:34:46;;;;;;;22.80;11.57;;;;;;;;;;5055315;28;20214;-86
2022/11/25 02:37:16;;;;;;;22.03;10.20;;;;;;;;;;5055554;28;20238;-86
2022/11/25 02:39:45;;;;;;;21.37;10.73;;;;;;;;;;5055760;28;20201;-86
2022/11/25 02:42:15;;;;;;;19.40;11.23;;;;;;;;;;5055885;28;20225;-86
2022/11/25 02:44:44;;;;;;;27.87;12.37;;;;;;;;;;5055433;28;20256;-86
2022/11/25 02:47:12;;;;;;;28.20;14.80;;;;;;;;;;5056100;28;20255;-86
2022/11/25 02:49:40;;;;;;;26.77;12.53;;;;;;;;;;5055353;28;20217;-86
2022/11/25 02:52:09;;;;;;;24.10;13.43;;;;;;;;;;5073595;28;20284;-85
2022/11/25 02:54:38;;;;;;;24.10;14.63;;;;;;;;;;5060465;28;20214;-86
2022/11/25 02:57:06;;;;;;;23.40;14.43;;;;;;;;;;5055362;28;20199;-86
2022/11/25 02:59:36;;;;;;;20.27;13.70;;;;;;;;;;5055418;28;20202;-86
2022/11/25 03:02:04;;;;;;;23.63;15.07;;;;;;;;;;5055406;28;20259;-86
2022/11/25 03:04:33;;;;;;;19.10;13.13;;;;;;;;;;5055601;28;20300;-86
2022/11/25 03:07:03;;;;;;;17.00;10.17;;;;;;;;;;5073224;28;20202;-86
2022/11/25 03:09:31;;;;;;;15.80;9.80;;;;;;;;;;5047679;28;20341;-86
2022/11/25 03:14:47;;;;;;;20.07;9.77;;;;;;;;;;5059178;28;20242;-87
2022/11/25 03:17:15;;;;;;;19.47;9.83;;;;;;;;;;5076790;28;20237;-86
2022/11/25 03:19:44;;;;;;;18.23;8.00;;;;;;;;;;5059046;28;20195;-86
2022/11/25 03:22:12;;;;;;;14.97;10.03;;;;;;;;;;5045831;28;20336;-86
2022/11/25 03:24:40;;;;;;;16.10;10.63;;;;;;;;;;5058895;28;20203;-86
2022/11/25 03:27:09;;;;;;;7.07;5.07;;;;;;;;;;5076596;28;20286;-86
2022/11/25 03:29:37;;;;;;;18.93;9.37;;;;;;;;;;5058481;28;20316;-86
2022/11/25 03:32:07;;;;;;;16.30;9.20;;;;;;;;;;5058797;28;20221;-86
2022/11/25 03:34:37;;;;;;;24.53;13.93;;;;;;;;;;5076383;28;20225;-86
2022/11/25 03:37:06;;;;;;;29.13;15.17;;;;;;;;;;5058768;28;20207;-86
2022/11/25 03:39:34;;;;;;;26.90;13.87;;;;;;;;;;5058564;28;20193;-86
2022/11/25 03:42:03;;;;;;;18.47;11.57;;;;;;;;;;5058580;28;20202;-86
2022/11/25 03:44:31;;;;;;;17.87;9.13;;;;;;;;;;5058622;28;20199;-87
2022/11/25 03:47:02;;;;;;;20.70;11.83;;;;;;;;;;5058704;28;20234;-86
2022/11/25 03:49:32;;;;;;;19.47;11.10;;;;;;;;;;5075843;28;20222;-85
2022/11/25 03:52:00;;;;;;;23.27;10.63;;;;;;;;;;5058597;28;20244;-86
2022/11/25 03:54:29;;;;;;;29.30;13.93;;;;;;;;;;5057800;28;20302;-86
2022/11/25 03:56:57;;;;;;;23.67;12.07;;;;;;;;;;5058050;28;20203;-86
2022/11/25 03:59:26;;;;;;;26.07;12.77;;;;;;;;;;5058236;28;20206;-86
2022/11/25 04:01:54;;;;;;;20.77;12.87;;;;;;;;;;5058296;28;20245;-86
2022/11/25 04:04:22;;;;;;;26.40;11.37;;;;;;;;;;5062412;28;20236;-86
2022/11/25 04:06:52;;;;;;;22.70;14.37;;;;;;;;;;5058403;28;20209;-86
2022/11/25 04:09:21;;;;;;;18.33;10.83;;;;;;;;;;5076096;28;20223;-86
2022/11/25 04:14:43;;;;;;;10.30;6.27;;;;;;;;;;5045928;28;20246;-86
2022/11/25 04:17:12;;;;;;;24.60;12.30;;;;;;;;;;5044697;28;20198;-86
2022/11/25 04:19:40;;;;;;;17.37;9.97;;;;;;;;;;5058090;28;20197;-86
2022/11/25 04:22:10;;;;;;;24.70;13.70;;;;;;;;;;5044530;28;20247;-87
2022/11/25 04:24:38;;;;;;;22.93;13.43;;;;;;;;;;5057507;28;20202;-86
2022/11/25 04:27:06;;;;;;;27.23;14.73;;;;;;;;;;5057599;28;20247;-86
2022/11/25 04:29:35;;;;;;;21.37;12.87;;;;;;;;;;5057644;28;20215;-86
2022/11/25 04:32:03;;;;;;;20.63;10.20;;;;;;;;;;5057808;28;20182;-86
2022/11/25 04:34:31;;;;;;;20.33;9.10;;;;;;;;;;5057536;28;20198;-86
2022/11/25 04:37:00;;;;;;;23.43;10.33;;;;;;;;;;5075415;28;20215;-86
2022/11/25 04:39:30;;;;;;;24.83;12.27;;;;;;;;;;5075145;28;20195;-86
2022/11/25 04:44:40;;;;;;;16.60;10.43;;;;;;;;;;5056492;28;20203;-86
2022/11/25 04:47:09;;;;;;;13.40;9.50;;;;;;;;;;5057267;28;20233;-86
2022/11/25 04:49:37;;;;;;;23.53;11.23;;;;;;;;;;5057018;28;20295;-86
2022/11/25 04:52:05;;;;;;;16.93;6.90;;;;;;;;;;5057461;28;20294;-86
2022/11/25 04:54:35;;;;;;;16.73;7.57;;;;;;;;;;5057299;28;20252;-86
2022/11/25 04:57:04;;;;;;;16.97;8.93;;;;;;;;;;5057254;28;20199;-85
2022/11/25 04:59:41;;;;;;;14.27;8.33;;;;;;;;;;5044346;28;20210;-86
2022/11/25 05:02:13;;;;;;;11.20;7.23;;;;;;;;;;5056236;28;20222;-86
2022/11/25 05:04:41;;;;;;;15.33;9.00;;;;;;;;;;5074497;28;20234;-86
2022/11/25 05:07:10;;;;;;;16.00;9.03;;;;;;;;;;5074776;28;20298;-82
2022/11/25 05:09:40;;;;;;;13.20;8.37;;;;;;;;;;5074464;28;20228;-81
2022/11/25 05:12:09;;;;;;;12.97;7.37;;;;;;;;;;5074448;28;20202;-81
2022/11/25 05:14:38;;;;;;;16.47;9.20;;;;;;;;;;5056847;28;20289;-81
2022/11/25 05:17:06;;;;;;;18.63;9.53;;;;;;;;;;5074253;28;20278;-81
2022/11/25 05:19:35;;;;;;;14.30;5.97;;;;;;;;;;5056477;28;20190;-81
2022/11/25 05:22:04;;;;;;;13.97;8.47;;;;;;;;;;5056480;28;20195;-81
2022/11/25 05:24:32;;;;;;;19.37;9.13;;;;;;;;;;5074409;28;20202;-82
2022/11/25 05:27:02;;;;;;;17.50;8.93;;;;;;;;;;5055834;28;20206;-82
2022/11/25 05:29:30;;;;;;;12.93;8.37;;;;;;;;;;5056212;28;20289;-81
2022/11/25 05:31:59;;;;;;;15.37;7.33;;;;;;;;;;5055636;28;20190;-81
2022/11/25 05:34:27;;;;;;;13.77;7.50;;;;;;;;;;5056310;28;20252;-81
2022/11/25 05:36:56;;;;;;;15.77;6.93;;;;;;;;;;5073973;28;20289;-82
2022/11/25 05:39:24;;;;;;;12.13;8.63;;;;;;;;;;5073506;28;20198;-81
2022/11/25 05:41:52;;;;;;;11.00;6.77;;;;;;;;;;5073836;28;20205;-81
2022/11/25 05:44:22;;;;;;;6.33;3.00;;;;;;;;;;5073849;28;20229;-81
2022/11/25 05:46:51;;;;;;;16.77;7.00;;;;;;;;;;5056385;28;20256;-82
2022/11/25 05:49:19;;;;;;;14.07;8.43;;;;;;;;;;5056022;28;20209;-81
2022/11/25 05:51:48;;;;;;;15.30;7.60;;;;;;;;;;5055901;28;20218;-81
2022/11/25 05:54:17;;;;;;;9.47;6.87;;;;;;;;;;5056214;28;20201;-81
2022/11/25 05:56:45;;;;;;;12.80;8.43;;;;;;;;;;5055393;28;20202;-81
2022/11/25 05:59:13;;;;;;;12.53;7.97;;;;;;;;;;5073519;28;20196;-82
2022/11/25 06:01:43;;;;;;;15.87;7.53;;;;;;;;;;5056019;28;20297;-82
2022/11/25 06:04:12;;;;;;;11.60;7.23;;;;;;;;;;5073368;28;20221;-81
2022/11/25 06:06:40;;;;;;;9.47;6.23;;;;;;;;;;5056059;28;20203;-82
2022/11/25 06:09:08;;;;;;;15.93;7.97;;;;;;;;;;5055635;28;20194;-82
2022/11/25 06:11:37;;;;;;;13.83;8.23;;;;;;;;;;5055771;28;20282;-82
2022/11/25 06:14:05;;;;;;;15.57;7.97;;;;;;;;;;5055526;28;20242;-81
2022/11/25 06:16:34;;;;;;;15.67;7.20;;;;;;;;;;5055841;28;20202;-81
2022/11/25 06:19:05;;;;;;;9.73;7.13;;;;;;;;;;5043219;28;20221;-81
2022/11/25 06:21:33;;;;;;;9.73;6.23;;;;;;;;;;5055804;28;20292;-81
2022/11/25 06:24:02;;;;;;;9.53;7.47;;;;;;;;;;5055715;28;20199;-81
2022/11/25 06:26:30;;;;;;;5.90;3.70;;;;;;;;;;5073149;28;20245;-82
2022/11/25 06:28:59;;;;;;;10.50;7.17;;;;;;;;;;5055953;28;20210;-82
2022/11/25 06:31:27;;;;;;;13.03;7.67;;;;;;;;;;5055612;28;20233;-81
2022/11/25 06:33:55;;;;;;;19.30;8.50;;;;;;;;;;5055616;28;20201;-81
2022/11/25 06:36:25;;;;;;;8.97;6.10;;;;;;;;;;5072914;28;20281;-81
2022/11/25 06:38:54;;;;;;;15.10;6.17;;;;;;;;;;5055720;28;20211;-82
2022/11/25 06:41:23;;;;;;;6.10;4.67;;;;;;;;;;5055229;28;20228;-82
2022/11/25 06:43:51;;;;;;;9.97;7.03;;;;;;;;;;5074886;28;20290;-83
2022/11/25 06:46:25;;;;;;;13.87;5.90;;;;;;;;;;5059248;28;20297;-83
2022/11/25 06:48:54;;;;;;;15.90;7.37;;;;;;;;;;5046946;28;20205;-83
2022/11/25 06:51:23;;;;;;;5.63;3.70;;;;;;;;;;5091822;28;20305;-83
2022/11/25 06:53:57;;;;;;;13.00;8.00;;;;;;;;;;5077400;28;20293;-83
2022/11/25 06:56:28;;;;;;;10.80;6.60;;;;;;;;;;5064354;28;20204;-83
2022/11/25 06:58:57;;;;;;;9.77;5.40;;;;;;;;;;5076836;28;20222;-83
2022/11/25 07:01:29;;;;;;;5.57;3.60;;;;;;;;;;5059345;28;20198;-82
2022/11/25 07:03:59;;;;;;;12.17;7.60;;;;;;;;;;5059331;28;20248;-82
2022/11/25 07:06:28;;;;;;;8.77;6.20;;;;;;;;;;5076745;28;20232;-82
2022/11/25 07:08:58;;;;;;;11.80;6.57;;;;;;;;;;5059074;28;20190;-82
2022/11/25 07:11:27;;;;;;;9.93;6.13;;;;;;;;;;5076555;28;20210;-82
2022/11/25 07:13:57;;;;;;;7.80;6.37;;;;;;;;;;5058498;28;20237;-82
2022/11/25 07:16:25;;;;;;;9.37;6.23;;;;;;;;;;5058856;28;20221;-81
2022/11/25 07:18:54;;;;;;;8.87;5.60;;;;;;;;;;5058817;28;20201;-82
2022/11/25 07:21:23;;;;;;;8.27;6.07;;;;;;;;;;5058931;28;20250;-82
2022/11/25 07:23:53;;;;;;;8.00;5.47;;;;;;;;;;5058718;28;20403;-82
2022/11/25 07:26:24;;;;;;;10.63;6.13;;;;;;;;;;5058732;28;20297;-82
2022/11/25 07:28:54;;;;;;;4.60;4.20;;;;;;;;;;5058598;28;20205;-80
2022/11/25 07:31:23;;;;;;;9.37;5.03;;;;;;;;;;5045992;28;20224;-81
2022/11/25 07:33:57;;;;;;;6.87;5.30;;;;;;;;;;5058678;28;20289;-82
2022/11/25 07:36:26;;;;;;;7.80;4.57;;;;;;;;;;5058365;28;20243;-82
2022/11/25 07:38:55;;;;;;;9.00;5.53;;;;;;;;;;5058875;28;20213;-82
2022/11/25 07:41:25;;;;;;;8.10;4.40;;;;;;;;;;5058525;28;20200;-82
2022/11/25 07:43:54;;;;;;;7.13;2.70;;;;;;;;;;5058675;28;20207;-82
2022/11/25 07:46:24;;;;;;;9.13;4.90;;;;;;;;;;5058315;28;20209;-82
2022/11/25 07:48:55;;;;;;;5.77;4.47;;;;;;;;;;5058319;28;20199;-82
2022/11/25 07:51:25;;;;;;;7.57;3.07;;;;;;;;;;5045288;28;20206;-82
2022/11/25 07:53:54;;;;;;;4.83;2.60;;;;;;;;;;5057710;28;20193;-82
2022/11/25 07:56:22;;;;;;;9.13;3.87;;;;;;;;;;5062431;28;20232;-82
2022/11/25 07:58:52;;;;;;;4.10;2.67;;;;;;;;;;5057812;28;20209;-82
2022/11/25 08:01:21;;;;;;;5.50;3.20;;;;;;;;;;5075938;28;20205;-81
2022/11/25 08:03:50;;;;;;;7.73;2.73;;;;;;;;;;5057480;28;20214;-82
2022/11/25 08:06:38;;;;;;;5.03;2.23;;;;;;;;;;5058174;28;20202;-82
2022/11/25 08:09:07;;;;;;;7.03;3.50;;;;;;;;;;5057935;28;20201;-82
2022/11/25 08:11:35;;;;;;;10.67;3.20;;;;;;;;;;5075799;28;20222;-82
2022/11/25 08:14:05;;;;;;;8.70;3.23;;;;;;;;;;5057294;28;20303;-82
2022/11/25 08:16:34;;;;;;;9.33;2.97;;;;;;;;;;5057998;28;20206;-82
2022/11/25 08:19:03;;;;;;;3.63;1.57;;;;;;;;;;5075405;28;20194;-82
2022/11/25 08:21:32;;;;;;;5.00;2.33;;;;;;;;;;5057607;28;20202;-83
2022/11/25 08:24:04;;;;;;;9.40;3.63;;;;;;;;;;5057710;28;20202;-83
2022/11/25 08:26:34;;;;;;;6.83;2.60;;;;;;;;;;5057426;28;20192;-83
2022/11/25 08:29:04;;;;;;;6.07;2.47;;;;;;;;;;5075519;28;20207;-83
2022/11/25 08:31:35;;;;;;;5.60;1.70;;;;;;;;;;5057257;28;20203;-81
2022/11/25 08:34:04;;;;;;;4.00;2.47;;;;;;;;;;5057553;28;20219;-81
2022/11/25 08:36:34;;;;;;;4.40;1.53;;;;;;;;;;5074953;28;20196;-81
2022/11/25 08:39:04;;;;;;;15.90;3.73;;;;;;;;;;5057692;28;20295;-81
2022/11/25 08:41:50;;;;;;;5.80;2.10;;;;;;;;;;5045703;28;20205;-82
2022/11/25 08:44:18;;;;;;;12.97;3.30;;;;;;;;;;5056970;28;20200;-82
2022/11/25 08:46:48;;;;;;;6.87;3.60;;;;;;;;;;5057206;28;20260;-81
2022/11/25 08:49:18;;;;;;;9.53;3.07;;;;;;;;;;5056754;28;20203;-82
2022/11/25 08:51:47;;;;;;;7.93;2.30;;;;;;;;;;5074747;28;20213;-81
2022/11/25 08:54:15;;;;;;;8.73;2.30;;;;;;;;;;5057045;28;20282;-81
2022/11/25 08:56:44;;;;;;;3.93;1.37;;;;;;;;;;5057356;28;20209;-81
2022/11/25 08:59:12;;;;;;;11.47;3.03;;;;;;;;;;5074294;28;20208;-82
2022/11/25 09:01:41;;;;;;;5.43;2.03;;;;;;;;;;5057056;28;20297;-81
2022/11/25 09:04:11;;;;;;;5.70;3.00;;;;;;;;;;5043755;28;20228;-81
2022/11/25 09:06:39;;;;;;;8.13;3.27;;;;;;;;;;5056990;28;20200;-82
2022/11/25 09:09:08;;;;;;;5.37;1.30;;;;;;;;;;5074392;28;20212;-82
2022/11/25 09:11:36;;;;;;;6.37;2.00;;;;;;;;;;5056806;28;20228;-82
2022/11/25 09:14:05;;;;;;;4.80;1.83;;;;;;;;;;5050997;28;20321;-82
2022/11/25 09:16:34;;;;;;;9.63;3.33;;;;;;;;;;5053057;28;20212;-82
2022/11/25 09:19:03;;;;;;;3.27;1.50;;;;;;;;;;5053657;28;20199;-81
2022/11/25 09:21:32;;;;;;;5.33;2.20;;;;;;;;;;5052842;28;20202;-82
2022/11/25 09:24:01;;;;;;;11.00;2.63;;;;;;;;;;5053067;28;20195;-82
2022/11/25 09:26:30;;;;;;;5.23;0.83;;;;;;;;;;5053324;28;20206;-83
2022/11/25 09:28:59;;;;;;;4.57;1.30;;;;;;;;;;5052778;28;20229;-83
2022/11/25 09:31:27;;;;;;;6.30;1.47;;;;;;;;;;5053984;28;20201;-83
2022/11/25 09:33:56;;;;;;;1.17;1.07;;;;;;;;;;5052973;28;20194;-81
2022/11/25 09:36:25;;;;;;;19.60;2.13;;;;;;;;;;5052707;28;20198;-81
2022/11/25 09:38:54;;;;;;;1.50;1.40;;;;;;;;;;5053782;28;20206;-81
2022/11/25 09:47:10;;;;;;;5.33;4.10;;;;;;;;;;5052633;28;20209;-81
2022/11/25 09:49:45;;;;;;;6.33;1.47;;;;;;;;;;5053639;28;20206;-82
2022/11/25 09:52:17;;;;;;;6.43;1.87;;;;;;;;;;5052112;28;20225;-82
2022/11/25 09:54:51;;;;;;;3.60;1.63;;;;;;;;;;5052398;28;20209;-82
2022/11/25 09:57:23;;;;;;;3.73;2.03;;;;;;;;;;5052039;28;20213;-81
2022/11/25 09:59:57;;;;;;;2.60;2.30;;;;;;;;;;5052078;28;20226;-82
2022/11/25 10:02:28;;;;;;;8.53;1.57;;;;;;;;;;5053610;28;20194;-82
2022/11/25 10:05:00;;;;;;;8.83;3.20;;;;;;;;;;5052279;28;20226;-82
2022/11/25 10:07:32;;;;;;;1.60;1.07;;;;;;;;;;5052572;28;20190;-82
2022/11/25 10:10:03;;;;;;;6.73;1.53;;;;;;;;;;5052384;28;20217;-83
2022/11/25 10:12:34;;;;;;;5.43;2.03;;;;;;;;;;5053274;28;20340;-82
2022/11/25 10:15:04;;;;;;;5.03;1.13;;;;;;;;;;5055335;28;20233;-82
2022/11/25 10:17:36;;;;;;;3.73;1.43;;;;;;;;;;5055599;28;20247;-82
2022/11/25 10:20:07;;;;;;;2.47;2.13;;;;;;;;;;5054846;28;20182;-82
2022/11/25 10:22:39;;;;;;;3.43;1.13;;;;;;;;;;5055752;28;20194;-82
2022/11/25 10:25:14;;;;;;;9.30;1.63;;;;;;;;;;5055438;28;20270;-82
2022/11/25 10:27:44;;;;;;;0.50;0.50;;;;;;;;;;5073421;28;20197;-82
2022/11/25 10:30:16;;;;;;;1.23;1.13;;;;;;;;;;5055688;28;20209;-82
2022/11/25 10:32:46;;;;;;;7.17;1.33;;;;;;;;;;5055449;28;20213;-82
2022/11/25 10:35:20;;;;;;;3.40;1.93;;;;;;;;;;5055628;28;20289;-82
2022/11/25 10:37:53;;;;;;;2.50;1.73;;;;;;;;;;5055037;28;20205;-82
2022/11/25 10:40:23;;;;;;;0.80;0.60;;;;;;;;;;5055195;28;20194;-82
2022/11/25 10:42:52;;;;;;;1.27;1.17;;;;;;;;;;5055178;28;20193;-82
2022/11/25 10:45:23;;;;;;;5.00;1.53;;;;;;;;;;5055511;28;20209;-82
2022/11/25 10:47:58;;;;;;;6.00;1.50;;;;;;;;;;5055305;28;20200;-83
2022/11/25 10:50:29;;;;;;;10.73;1.33;;;;;;;;;;5073455;28;20197;-81
2022/11/25 10:52:59;;;;;;;5.47;2.00;;;;;;;;;;5055596;28;20232;-80
2022/11/25 10:55:30;;;;;;;1.40;1.07;;;;;;;;;;5055127;28;20194;-82
2022/11/25 10:57:59;;;;;;;4.33;1.97;;;;;;;;;;5054936;28;20204;-80
2022/11/25 11:00:29;;;;;;;5.30;1.70;;;;;;;;;;5055177;28;20203;-81
2022/11/25 11:02:58;;;;;;;8.63;1.83;;;;;;;;;;5072929;28;20269;-81
2022/11/25 11:05:28;;;;;;;1.77;1.67;;;;;;;;;;5072575;28;20198;-81
2022/11/25 11:08:15;;;;;;;11.97;2.97;;;;;;;;;;5072861;28;20202;-81
2022/11/25 11:10:45;;;;;;;7.23;2.00;;;;;;;;;;5062895;28;20209;-81
2022/11/25 11:13:22;;;;;;;3.43;1.27;;;;;;;;;;5055048;28;20221;-81
2022/11/25 11:15:50;;;;;;;6.13;2.33;;;;;;;;;;5042681;28;20204;-82
2022/11/25 11:18:25;;;;;;;7.07;2.27;;;;;;;;;;5055020;28;20200;-82
2022/11/25 11:20:54;;;;;;;6.13;2.17;;;;;;;;;;5054883;28;20201;-82
2022/11/25 11:23:23;;;;;;;8.07;1.70;;;;;;;;;;5055014;28;20201;-81
2022/11/25 11:26:08;;;;;;;9.87;1.80;;;;;;;;;;5054748;28;20275;-82
2022/11/25 11:28:41;;;;;;;6.23;3.77;;;;;;;;;;5054791;28;20210;-82
2022/11/25 11:31:19;;;;;;;3.47;1.37;;;;;;;;;;5057042;28;20202;-84
2022/11/25 11:33:52;;;;;;;1.63;1.53;;;;;;;;;;5060867;28;20216;-88
2022/11/25 11:36:28;;;;;;;4.50;1.93;;;;;;;;;;5078667;28;20205;-86
2022/11/25 11:39:01;;;;;;;1.00;0.87;;;;;;;;;;5060278;28;20231;-86
2022/11/25 11:41:37;;;;;;;6.37;2.07;;;;;;;;;;5060344;28;20197;-88
2022/11/25 11:44:13;;;;;;;6.60;1.97;;;;;;;;;;5058276;28;20200;-82
2022/11/25 11:46:47;;;;;;;6.40;1.83;;;;;;;;;;5058590;28;20208;-82
2022/11/25 11:49:26;;;;;;;3.20;1.33;;;;;;;;;;5058420;28;20197;-83
2022/11/25 11:52:01;;;;;;;7.00;2.90;;;;;;;;;;5058238;28;20193;-83
2022/11/25 11:54:32;;;;;;;2.23;2.20;;;;;;;;;;5058117;28;20233;-83
2022/11/25 11:57:04;;;;;;;6.17;2.23;;;;;;;;;;5058194;28;20202;-82
2022/11/25 11:59:48;;;;;;;3.33;0.97;;;;;;;;;;5045370;28;20201;-83
2022/11/25 12:02:31;;;;;;;1.80;1.00;;;;;;;;;;5058060;28;20206;-83
2022/11/25 12:05:04;;;;;;;7.80;3.10;;;;;;;;;;5055587;28;20233;-83
2022/11/25 12:07:35;;;;;;;6.67;2.27;;;;;;;;;;5058005;28;20208;-82
2022/11/25 12:10:06;;;;;;;1.00;1.00;;;;;;;;;;5058064;28;20276;-81
2022/11/25 12:12:38;;;;;;;3.20;1.83;;;;;;;;;;5045786;28;20205;-82
2022/11/25 12:15:13;;;;;;;3.60;2.57;;;;;;;;;;5057693;28;20230;-82
2022/11/25 12:17:44;;;;;;;2.03;1.47;;;;;;;;;;5057768;28;20205;-82
2022/11/25 12:20:16;;;;;;;0.97;0.80;;;;;;;;;;5057424;28;20189;-82
2022/11/25 12:22:47;;;;;;;3.20;1.50;;;;;;;;;;5057808;28;20193;-82
2022/11/25 12:25:19;;;;;;;6.83;2.43;;;;;;;;;;5075242;28;20224;-82
2022/11/25 12:27:51;;;;;;;4.63;1.20;;;;;;;;;;5057450;28;20292;-83
2022/11/25 12:30:20;;;;;;;12.00;2.47;;;;;;;;;;5074786;28;20206;-82
2022/11/25 12:32:59;;;;;;;7.77;2.67;;;;;;;;;;5057480;28;20206;-82
2022/11/25 12:35:33;;;;;;;12.47;3.70;;;;;;;;;;5046488;28;20205;-82
2022/11/25 12:38:04;;;;;;;3.80;1.50;;;;;;;;;;5057427;28;20194;-82
2022/11/25 12:40:36;;;;;;;6.90;2.07;;;;;;;;;;5057374;28;20202;-83
2022/11/25 12:43:12;;;;;;;6.80;1.70;;;;;;;;;;5074929;28;20258;-83
2022/11/25 12:45:42;;;;;;;4.53;2.30;;;;;;;;;;5057240;28;20209;-83
2022/11/25 12:48:12;;;;;;;4.63;1.27;;;;;;;;;;5057089;28;20205;-83
2022/11/25 12:50:53;;;;;;;3.23;1.27;;;;;;;;;;5056791;28;20201;-82
2022/11/25 12:53:23;;;;;;;5.87;2.87;;;;;;;;;;5057378;28;20211;-83
2022/11/25 12:55:53;;;;;;;6.10;1.93;;;;;;;;;;5057054;28;20202;-83
2022/11/25 12:58:40;;;;;;;1.90;1.47;;;;;;;;;;5056849;28;20213;-83
2022/11/25 13:01:25;;;;;;;0.70;0.70;;;;;;;;;;5061865;28;20200;-83
2022/11/25 13:04:04;;;;;;;7.73;2.20;;;;;;;;;;5056483;28;20255;-82
2022/11/25 13:06:52;;;;;;;8.40;4.77;;;;;;;;;;5056511;28;20265;-83
2022/11/25 13:09:33;;;;;;;8.73;3.30;;;;;;;;;;5044856;28;20297;-83
2022/11/25 13:12:17;;;;;;;11.43;1.23;;;;;;;;;;5056349;28;20201;-80
2022/11/25 13:14:58;;;;;;;1.00;0.90;;;;;;;;;;5054578;28;20234;-81
2022/11/25 13:17:29;;;;;;;6.90;1.80;;;;;;;;;;5055298;28;20232;-84
2022/11/25 13:20:13;;;;;;;6.20;2.10;;;;;;;;;;5053640;28;20201;-83
2022/11/25 13:22:41;;;;;;;10.20;1.90;;;;;;;;;;5069863;28;20251;-83
2022/11/25 13:25:22;;;;;;;0.77;0.77;;;;;;;;;;5056262;28;20193;-83
2022/11/25 13:27:57;;;;;;;3.73;1.70;;;;;;;;;;5058107;28;20262;-82
2022/11/25 13:30:36;;;;;;;4.30;1.57;;;;;;;;;;5053935;28;20212;-82
2022/11/25 13:33:20;;;;;;;2.07;1.00;;;;;;;;;;5054795;28;20200;-82
2022/11/25 13:35:51;;;;;;;5.97;2.20;;;;;;;;;;5052353;28;20205;-83
2022/11/25 13:38:35;;;;;;;5.97;2.37;;;;;;;;;;5073344;28;20276;-82
2022/11/25 13:41:05;;;;;;;3.20;1.40;;;;;;;;;;5084518;28;20206;-82
2022/11/25 13:43:33;;;;;;;4.00;2.40;;;;;;;;;;5041087;28;20194;-82
2022/11/25 13:46:02;;;;;;;1.83;1.30;;;;;;;;;;5052033;28;20255;-82
2022/11/25 13:48:33;;;;;;;3.03;1.13;;;;;;;;;;5041795;28;20202;-82
2022/11/25 13:51:22;;;;;;;5.87;1.03;;;;;;;;;;5050612;28;20202;-83
2022/11/25 13:53:54;;;;;;;4.93;1.33;;;;;;;;;;5062356;28;20205;-82
2022/11/25 13:56:30;;;;;;;2.93;1.77;;;;;;;;;;5073529;28;20237;-81
2022/11/25 13:59:17;;;;;;;6.70;3.30;;;;;;;;;;5057007;28;20208;-82
2022/11/25 14:01:53;;;;;;;4.63;2.37;;;;;;;;;;5065726;28;20201;-81
2022/11/25 14:04:32;;;;;;;11.80;2.70;;;;;;;;;;5045902;28;20217;-82
2022/11/25 14:07:09;;;;;;;0.77;0.77;;;;;;;;;;5052467;28;20228;-82
2022/11/25 14:09:53;;;;;;;12.27;2.93;;;;;;;;;;5070814;28;20302;-82
2022/11/25 14:12:29;;;;;;;9.17;2.40;;;;;;;;;;5055983;28;20201;-82
2022/11/25 14:15:03;;;;;;;5.87;1.17;;;;;;;;;;5054756;28;20267;-82
2022/11/25 14:17:44;;;;;;;7.57;1.80;;;;;;;;;;5054727;28;20247;-83
2022/11/25 14:20:21;;;;;;;6.87;1.70;;;;;;;;;;5052050;28;20292;-83
2022/11/25 14:23:03;;;;;;;1.43;1.33;;;;;;;;;;5046794;28;20201;-82
2022/11/25 14:25:42;;;;;;;0.40;0.40;;;;;;;;;;5051242;28;20232;-82
2022/11/25 14:28:17;;;;;;;3.10;1.23;;;;;;;;;;5055159;28;20223;-81
2022/11/25 14:30:47;;;;;;;3.10;1.53;;;;;;;;;;5053190;28;20205;-81
2022/11/25 14:33:24;;;;;;;7.03;1.93;;;;;;;;;;5055362;28;20201;-80
2022/11/25 14:35:54;;;;;;;10.23;3.40;;;;;;;;;;5047994;28;20299;-80
2022/11/25 14:38:29;;;;;;;3.97;1.93;;;;;;;;;;5074282;28;20289;-81
2022/11/25 14:41:01;;;;;;;9.30;2.27;;;;;;;;;;5055063;28;20411;-81
2022/11/25 14:43:31;;;;;;;8.13;1.57;;;;;;;;;;5064505;28;20210;-81
2022/11/25 14:46:10;;;;;;;6.47;2.70;;;;;;;;;;5061592;28;20224;-81
2022/11/25 14:48:38;;;;;;;7.93;2.80;;;;;;;;;;5053823;28;20292;-81
2022/11/25 14:51:08;;;;;;;4.60;2.30;;;;;;;;;;5055020;28;20194;-80
2022/11/25 14:53:43;;;;;;;5.63;1.20;;;;;;;;;;5074191;28;20201;-80
2022/11/25 14:56:22;;;;;;;0.90;0.90;;;;;;;;;;5049479;28;20221;-80
2022/11/25 14:58:51;;;;;;;2.10;1.73;;;;;;;;;;5054626;28;20305;-81
2022/11/25 15:01:21;;;;;;;3.40;1.50;;;;;;;;;;5058429;28;20197;-81
2022/11/25 15:03:50;;;;;;;0.70;0.70;;;;;;;;;;5068520;28;20225;-81
2022/11/25 15:06:19;;;;;;;8.60;2.83;;;;;;;;;;5072325;28;20186;-82
2022/11/25 15:08:55;;;;;;;3.93;1.83;;;;;;;;;;5058431;28;20202;-82
2022/11/25 15:11:26;;;;;;;1.40;1.00;;;;;;;;;;5058421;28;20197;-83
2022/11/25 15:13:56;;;;;;;1.37;1.27;;;;;;;;;;5076333;28;20251;-81
2022/11/25 15:16:28;;;;;;;5.03;2.67;;;;;;;;;;5059028;28;20217;-81
2022/11/25 15:18:59;;;;;;;3.60;1.83;;;;;;;;;;5045950;28;20198;-81